Time;durP1;ratioP1;P1;durP2;ratioP2;P2;SDS_P1;SDS_P2;PMS_P1;PMS_P2;Temp;Humidity;BMP_temperature;BMP_pressure;BME280_temperature;BME280_humidity;BME280_pressure;Samples;Min_cycle;Max_cycle;Signal;HPM_P1;HPM_P2
2022/08/10 00:01:28;;;;;;;0.80;0.40;;;23.90;56.10;;;;;;4508255;31;20057;-71
2022/08/10 00:03:55;;;;;;;1.33;0.50;;;23.90;57.00;;;;;;4507968;31;20073;-71
2022/08/10 00:06:21;;;;;;;3.78;0.60;;;23.90;56.10;;;;;;4508209;31;20077;-72
2022/08/10 00:08:47;;;;;;;2.45;0.50;;;23.80;56.00;;;;;;4507804;31;20106;-71
2022/08/10 00:11:13;;;;;;;0.80;0.45;;;23.90;56.10;;;;;;4507818;31;20376;-72
2022/08/10 00:13:39;;;;;;;0.85;0.40;;;23.80;57.00;;;;;;4507575;31;20379;-71
2022/08/10 00:16:05;;;;;;;0.90;0.52;;;23.90;56.10;;;;;;4508107;31;20069;-71
2022/08/10 00:18:31;;;;;;;1.00;0.52;;;23.80;56.10;;;;;;4507756;31;20076;-71
2022/08/10 00:20:57;;;;;;;2.20;0.43;;;23.80;56.10;;;;;;4507827;31;20383;-73
2022/08/10 00:23:23;;;;;;;1.20;0.47;;;23.80;56.10;;;;;;4507804;31;20145;-71
2022/08/10 00:25:49;;;;;;;1.00;0.50;;;23.80;56.10;;;;;;4507865;31;20126;-71
2022/08/10 00:28:14;;;;;;;0.65;0.50;;;23.80;56.10;;;;;;4507746;31;20468;-71
2022/08/10 00:30:40;;;;;;;0.50;0.40;;;23.80;56.10;;;;;;4507375;31;20462;-71
2022/08/10 00:33:06;;;;;;;0.80;0.50;;;23.80;56.10;;;;;;4507663;31;20107;-71
2022/08/10 00:35:32;;;;;;;1.63;0.52;;;23.80;56.10;;;;;;4507680;31;20452;-71
2022/08/10 00:37:58;;;;;;;1.25;0.50;;;23.80;56.10;;;;;;4493172;31;20151;-71
2022/08/10 00:40:24;;;;;;;0.80;0.40;;;23.80;56.10;;;;;;4507847;31;20529;-71
2022/08/10 00:42:50;;;;;;;1.20;0.38;;;23.80;56.10;;;;;;4507664;31;20614;-71
2022/08/10 00:45:16;;;;;;;2.03;0.55;;;23.80;56.10;;;;;;4507316;31;20239;-71
2022/08/10 00:47:42;;;;;;;1.85;0.50;;;23.80;56.10;;;;;;4507303;31;20057;-71
2022/08/10 00:50:08;;;;;;;0.45;0.40;;;23.80;56.10;;;;;;4507534;31;20065;-71
2022/08/10 00:52:35;;;;;;;0.80;0.50;;;23.80;56.10;;;;;;4507628;31;20560;-71
2022/08/10 00:55:03;;;;;;;1.27;0.50;;;23.80;56.10;;;;;;4507574;31;20142;-73
2022/08/10 00:57:31;;;;;;;0.80;0.50;;;23.80;56.20;;;;;;4507287;31;20077;-70
2022/08/10 00:59:57;;;;;;;0.60;0.40;;;23.80;56.20;;;;;;4507759;31;20109;-71
2022/08/10 01:02:23;;;;;;;0.57;0.35;;;23.80;56.20;;;;;;4509841;31;20069;-71
2022/08/10 01:04:49;;;;;;;0.68;0.22;;;23.80;56.20;;;;;;4510602;31;20202;-70
2022/08/10 01:07:30;;;;;;;0.50;0.30;;;23.80;56.20;;;;;;4510813;31;20390;-71
2022/08/10 01:10:04;;;;;;;0.70;0.40;;;23.80;56.30;;;;;;4510529;31;20091;-71
2022/08/10 01:12:39;;;;;;;0.40;0.40;;;23.80;56.30;;;;;;4510583;31;20076;-71
2022/08/10 01:15:08;;;;;;;0.50;0.30;;;23.80;57.20;;;;;;4510887;31;20077;-71
2022/08/10 01:17:48;;;;;;;1.17;0.40;;;23.80;56.30;;;;;;4510188;31;20098;-71
2022/08/10 01:20:25;;;;;;;0.68;0.60;;;23.80;56.40;;;;;;4510508;31;20061;-70
2022/08/10 01:23:35;;;;;;;1.58;0.55;;;23.80;56.40;;;;;;4510170;31;20080;-71
2022/08/10 01:26:30;;;;;;;0.88;0.40;;;23.80;56.40;;;;;;4460923;32;20431;-71
2022/08/10 01:29:00;;;;;;;1.23;0.50;;;23.80;56.40;;;;;;4507646;31;20069;-71
2022/08/10 01:31:32;;;;;;;0.35;0.22;;;23.80;56.50;;;;;;4510302;31;20095;-71
2022/08/10 01:34:06;;;;;;;3.10;0.40;;;23.80;56.50;;;;;;4510226;31;20417;-71
2022/08/10 01:36:40;;;;;;;0.70;0.30;;;23.70;56.60;;;;;;4509983;31;20421;-71
2022/08/10 01:39:07;;;;;;;0.80;0.60;;;23.70;56.60;;;;;;4509920;31;20218;-71
2022/08/10 01:41:41;;;;;;;1.70;0.52;;;23.70;56.60;;;;;;4510077;31;20089;-72
2022/08/10 01:44:13;;;;;;;0.77;0.40;;;23.70;56.60;;;;;;4510430;31;20097;-71
2022/08/10 01:46:46;;;;;;;1.60;0.60;;;23.70;56.60;;;;;;4510075;31;20135;-71
2022/08/10 01:49:14;;;;;;;1.13;0.40;;;23.70;56.60;;;;;;4510038;31;20288;-71
2022/08/10 01:51:51;;;;;;;1.65;0.40;;;23.70;56.60;;;;;;4509894;31;20545;-72
2022/08/10 01:54:24;;;;;;;0.75;0.38;;;23.70;56.60;;;;;;4510030;31;20127;-71
2022/08/10 01:56:54;;;;;;;1.73;0.50;;;23.70;56.60;;;;;;4510133;31;20087;-72
2022/08/10 01:59:33;;;;;;;0.50;0.30;;;23.70;56.50;;;;;;4509644;31;20073;-72
2022/08/10 02:02:06;;;;;;;1.50;0.45;;;23.70;56.50;;;;;;4509920;31;20131;-71
2022/08/10 02:04:36;;;;;;;0.85;0.40;;;23.70;56.50;;;;;;4509843;31;20410;-71
2022/08/10 02:07:05;;;;;;;0.82;0.40;;;23.70;56.50;;;;;;4510005;31;20068;-71
2022/08/10 02:09:35;;;;;;;1.13;0.60;;;23.70;56.50;;;;;;4509531;31;20172;-71
2022/08/10 02:12:06;;;;;;;1.85;0.43;;;23.70;56.50;;;;;;4509328;31;20186;-71
2022/08/10 02:14:35;;;;;;;1.00;0.40;;;23.70;56.50;;;;;;4509001;31;20088;-72
2022/08/10 02:17:07;;;;;;;0.43;0.30;;;23.70;56.50;;;;;;4509568;31;20091;-71
2022/08/10 02:19:35;;;;;;;0.80;0.40;;;23.70;56.50;;;;;;4509990;31;20089;-71
2022/08/10 02:22:03;;;;;;;1.13;0.60;;;23.70;56.40;;;;;;4509804;31;20073;-71
2022/08/10 02:24:29;;;;;;;0.93;0.40;;;23.60;56.40;;;;;;4509721;31;20081;-71
2022/08/10 02:26:56;;;;;;;1.88;0.40;;;23.60;56.40;;;;;;4509335;31;20161;-72
2022/08/10 02:29:23;;;;;;;0.88;0.30;;;23.60;56.50;;;;;;4495068;31;20073;-71
2022/08/10 02:31:49;;;;;;;0.40;0.38;;;23.60;56.50;;;;;;4509552;31;20083;-71
2022/08/10 02:34:16;;;;;;;0.57;0.30;;;23.60;56.50;;;;;;4509108;31;20072;-71
2022/08/10 02:36:48;;;;;;;0.60;0.22;;;23.60;56.50;;;;;;4509299;31;20103;-71
2022/08/10 02:39:16;;;;;;;0.90;0.40;;;23.60;56.50;;;;;;4509575;31;20061;-71
2022/08/10 02:41:54;;;;;;;0.70;0.40;;;23.60;56.50;;;;;;4509127;31;20084;-71
2022/08/10 02:44:25;;;;;;;1.10;0.50;;;23.60;56.50;;;;;;4509477;31;20103;-71
2022/08/10 02:47:20;;;;;;;2.67;0.85;;;23.60;56.40;;;;;;4508878;31;20421;-72
2022/08/10 02:50:20;;;;;;;0.63;0.30;;;23.60;56.50;;;;;;4502790;31;20084;-71
2022/08/10 02:52:49;;;;;;;1.33;0.47;;;23.60;56.40;;;;;;4494453;31;20096;-71
2022/08/10 02:55:24;;;;;;;0.40;0.30;;;23.60;56.50;;;;;;4509009;31;20084;-71
2022/08/10 02:57:53;;;;;;;0.63;0.30;;;23.60;56.50;;;;;;4509355;31;20079;-71
2022/08/10 03:00:19;;;;;;;0.93;0.30;;;23.60;56.50;;;;;;4508946;31;20505;-71
2022/08/10 03:02:48;;;;;;;1.20;0.32;;;23.50;56.40;;;;;;4508650;31;20084;-71
2022/08/10 03:05:16;;;;;;;0.40;0.40;;;23.60;56.50;;;;;;4508523;31;20093;-71
2022/08/10 03:07:50;;;;;;;0.85;0.30;;;23.50;56.40;;;;;;4509054;31;20089;-71
2022/08/10 03:10:23;;;;;;;0.60;0.30;;;23.50;56.40;;;;;;4508937;31;20216;-70
2022/08/10 03:12:56;;;;;;;1.30;0.40;;;23.50;56.50;;;;;;4508849;31;20618;-71
2022/08/10 03:15:24;;;;;;;0.52;0.40;;;23.50;57.40;;;;;;4509120;31;20218;-71
2022/08/10 03:17:52;;;;;;;1.38;0.40;;;23.50;56.50;;;;;;4508719;31;20494;-71
2022/08/10 03:20:20;;;;;;;0.80;0.40;;;23.50;56.50;;;;;;4508641;31;20100;-72
2022/08/10 03:22:49;;;;;;;0.30;0.20;;;23.50;56.50;;;;;;4509142;31;20089;-71
2022/08/10 03:25:21;;;;;;;1.63;0.50;;;23.50;56.50;;;;;;4508533;31;20138;-71
2022/08/10 03:27:48;;;;;;;0.60;0.30;;;23.50;56.50;;;;;;4508287;31;20104;-72
2022/08/10 03:30:14;;;;;;;0.68;0.40;;;23.50;56.50;;;;;;4508620;31;20101;-73
2022/08/10 03:32:42;;;;;;;0.88;0.40;;;23.50;56.50;;;;;;4493911;31;20135;-71
2022/08/10 03:35:10;;;;;;;0.60;0.40;;;23.50;56.50;;;;;;4508123;31;20089;-71
2022/08/10 03:37:36;;;;;;;0.43;0.20;;;23.50;56.60;;;;;;4508650;31;20485;-72
2022/08/10 03:40:04;;;;;;;0.85;0.50;;;23.50;56.50;;;;;;4508264;31;20068;-72
2022/08/10 03:42:32;;;;;;;0.73;0.43;;;23.50;56.60;;;;;;4508084;31;20514;-71
2022/08/10 03:45:00;;;;;;;1.20;0.50;;;23.50;56.60;;;;;;4508289;31;20084;-71
2022/08/10 03:47:29;;;;;;;0.40;0.30;;;23.50;56.60;;;;;;4508131;31;20546;-71
2022/08/10 03:49:57;;;;;;;0.75;0.38;;;23.50;56.60;;;;;;4493945;31;20142;-71
2022/08/10 03:52:23;;;;;;;0.40;0.30;;;23.40;56.50;;;;;;4508232;31;20077;-71
2022/08/10 03:54:52;;;;;;;2.15;0.50;;;23.40;56.50;;;;;;4507888;31;20068;-71
2022/08/10 03:57:19;;;;;;;0.50;0.40;;;23.40;56.50;;;;;;4493836;31;20076;-71
2022/08/10 03:59:46;;;;;;;1.33;0.40;;;23.40;56.60;;;;;;4508123;31;20552;-71
2022/08/10 04:02:13;;;;;;;0.70;0.40;;;23.40;56.60;;;;;;4508438;31;20073;-72
2022/08/10 04:04:39;;;;;;;0.93;0.35;;;23.40;56.60;;;;;;4508004;31;20488;-71
2022/08/10 04:07:05;;;;;;;0.73;0.38;;;23.40;56.60;;;;;;4508047;31;20084;-72
2022/08/10 04:09:33;;;;;;;0.50;0.30;;;23.40;56.60;;;;;;4508089;31;20087;-71
2022/08/10 04:11:58;;;;;;;0.68;0.30;;;23.40;56.60;;;;;;4507714;31;20231;-71
2022/08/10 04:14:25;;;;;;;1.10;0.30;;;23.40;56.60;;;;;;4508029;31;20088;-71
2022/08/10 04:16:51;;;;;;;0.60;0.35;;;23.40;56.60;;;;;;4508077;31;20076;-71
2022/08/10 04:19:18;;;;;;;0.77;0.45;;;23.40;57.50;;;;;;4493600;31;20097;-71
2022/08/10 04:21:53;;;;;;;0.50;0.30;;;23.40;56.70;;;;;;4508138;31;20077;-71
2022/08/10 04:24:23;;;;;;;1.00;0.40;;;23.40;56.70;;;;;;4508176;31;20472;-71
2022/08/10 04:26:49;;;;;;;0.63;0.30;;;23.40;56.70;;;;;;4507819;31;20517;-71
2022/08/10 04:29:15;;;;;;;0.63;0.50;;;23.40;56.70;;;;;;4507506;31;20088;-71
2022/08/10 04:31:43;;;;;;;0.60;0.35;;;23.40;56.70;;;;;;4507686;31;20065;-71
2022/08/10 04:34:10;;;;;;;0.50;0.30;;;23.40;56.70;;;;;;4507791;31;20162;-71
2022/08/10 04:36:38;;;;;;;0.47;0.40;;;23.40;56.70;;;;;;4509174;31;20092;-72
2022/08/10 04:39:04;;;;;;;0.30;0.20;;;23.40;56.80;;;;;;4510959;31;20430;-71
2022/08/10 04:41:31;;;;;;;0.55;0.40;;;23.40;56.80;;;;;;4510909;31;20065;-71
2022/08/10 04:43:57;;;;;;;2.15;0.32;;;23.40;56.80;;;;;;4496438;31;20113;-71
2022/08/10 04:46:23;;;;;;;0.98;0.40;;;23.40;56.80;;;;;;4510943;31;20076;-71
2022/08/10 04:48:49;;;;;;;0.50;0.30;;;23.40;56.80;;;;;;4510711;31;20414;-71
2022/08/10 04:51:16;;;;;;;0.50;0.32;;;23.40;56.80;;;;;;4511027;31;20073;-72
2022/08/10 04:53:42;;;;;;;0.80;0.50;;;23.40;56.80;;;;;;4510545;31;20219;-71
2022/08/10 04:56:08;;;;;;;0.43;0.30;;;23.30;56.80;;;;;;4510541;31;20073;-71
2022/08/10 04:58:35;;;;;;;0.70;0.30;;;23.30;56.80;;;;;;4510747;31;20159;-71
2022/08/10 05:01:01;;;;;;;0.80;0.38;;;23.30;56.80;;;;;;4510451;31;20088;-71
2022/08/10 05:03:27;;;;;;;0.65;0.20;;;23.30;56.80;;;;;;4510407;31;20255;-72
2022/08/10 05:05:53;;;;;;;1.25;0.38;;;23.30;57.00;;;;;;4510633;31;20588;-71
2022/08/10 05:08:19;;;;;;;1.25;0.50;;;23.30;56.80;;;;;;4510580;31;20077;-71
2022/08/10 05:10:47;;;;;;;0.55;0.30;;;23.30;56.80;;;;;;4510628;31;20523;-71
2022/08/10 05:13:13;;;;;;;0.55;0.20;;;23.30;56.80;;;;;;4510271;31;20161;-71
2022/08/10 05:15:42;;;;;;;0.47;0.30;;;23.30;56.80;;;;;;4510471;31;20085;-71
2022/08/10 05:18:08;;;;;;;0.52;0.40;;;23.30;56.90;;;;;;4510221;31;20161;-71
2022/08/10 05:20:34;;;;;;;0.50;0.30;;;23.30;56.90;;;;;;4510391;31;20072;-71
2022/08/10 05:23:00;;;;;;;0.85;0.20;;;23.30;56.90;;;;;;4510392;31;20482;-71
2022/08/10 05:25:26;;;;;;;0.50;0.30;;;23.30;56.90;;;;;;4510416;31;20073;-71
2022/08/10 05:27:51;;;;;;;0.68;0.40;;;23.30;56.90;;;;;;4510305;31;20490;-71
2022/08/10 05:30:20;;;;;;;0.70;0.30;;;23.30;56.90;;;;;;4509970;31;20155;-71
2022/08/10 05:32:47;;;;;;;0.90;0.47;;;23.30;56.90;;;;;;4495984;31;20493;-71
2022/08/10 05:35:13;;;;;;;0.60;0.50;;;23.30;56.90;;;;;;4510469;31;20095;-71
2022/08/10 05:37:41;;;;;;;0.93;0.45;;;23.30;56.90;;;;;;4495644;31;20084;-72
2022/08/10 05:40:08;;;;;;;0.35;0.35;;;23.30;56.90;;;;;;4509784;31;20085;-71
2022/08/10 05:42:34;;;;;;;0.40;0.30;;;23.30;56.90;;;;;;4510140;31;20084;-71
2022/08/10 05:45:00;;;;;;;0.50;0.30;;;23.30;56.90;;;;;;4510079;31;20087;-71
2022/08/10 05:47:27;;;;;;;0.55;0.30;;;23.30;56.90;;;;;;4509585;31;20069;-71
2022/08/10 05:49:54;;;;;;;1.42;0.50;;;23.30;56.90;;;;;;4509987;31;20123;-71
2022/08/10 05:52:20;;;;;;;0.30;0.30;;;23.30;56.90;;;;;;4509967;31;20340;-71
2022/08/10 05:54:46;;;;;;;0.40;0.40;;;23.30;56.90;;;;;;4495736;31;20176;-71
2022/08/10 05:57:15;;;;;;;0.70;0.40;;;23.30;56.90;;;;;;4509962;31;20722;-71
2022/08/10 05:59:53;;;;;;;0.73;0.40;;;23.30;56.90;;;;;;4509553;31;20185;-71
2022/08/10 06:02:32;;;;;;;0.65;0.35;;;23.30;56.90;;;;;;4509924;31;20084;-71
2022/08/10 06:05:02;;;;;;;1.33;0.47;;;23.30;56.90;;;;;;4509819;31;20163;-71
2022/08/10 06:07:29;;;;;;;0.65;0.30;;;23.40;57.00;;;;;;4510118;31;20218;-73
2022/08/10 06:09:57;;;;;;;0.38;0.30;;;23.40;57.00;;;;;;4495109;31;20080;-71
2022/08/10 06:12:26;;;;;;;0.22;0.22;;;23.40;57.00;;;;;;4509491;31;20248;-71
2022/08/10 06:15:02;;;;;;;0.50;0.40;;;23.40;57.00;;;;;;4509599;31;20165;-70
2022/08/10 06:17:30;;;;;;;0.60;0.43;;;23.40;57.00;;;;;;4509929;31;20073;-72
2022/08/10 06:19:59;;;;;;;0.80;0.38;;;23.40;57.90;;;;;;4509608;31;20064;-71
2022/08/10 06:22:27;;;;;;;0.63;0.25;;;23.40;57.00;;;;;;4509541;31;20072;-71
2022/08/10 06:24:57;;;;;;;0.98;0.25;;;23.40;57.00;;;;;;4509790;31;20081;-71
2022/08/10 06:27:23;;;;;;;0.77;0.38;;;23.40;57.00;;;;;;4509704;31;20085;-71
2022/08/10 06:29:51;;;;;;;0.52;0.40;;;23.40;57.00;;;;;;4509607;31;20093;-71
2022/08/10 06:32:19;;;;;;;0.50;0.30;;;23.50;57.10;;;;;;4509341;31;20081;-71
2022/08/10 06:34:47;;;;;;;0.50;0.30;;;23.50;57.20;;;;;;4509289;31;20081;-70
2022/08/10 06:37:16;;;;;;;0.55;0.30;;;23.50;57.20;;;;;;4509268;31;20537;-71
2022/08/10 06:39:43;;;;;;;0.63;0.45;;;23.50;57.20;;;;;;4509158;31;20072;-71
2022/08/10 06:42:30;;;;;;;1.13;0.30;;;23.50;57.10;;;;;;4509171;31;20409;-70
2022/08/10 06:45:17;;;;;;;1.95;0.32;;;23.50;57.20;;;;;;4495006;31;20541;-71
2022/08/10 06:47:49;;;;;;;1.55;0.50;;;23.60;57.20;;;;;;4508752;31;20080;-75
2022/08/10 06:50:40;;;;;;;0.75;0.30;;;23.60;57.20;;;;;;4494647;31;20518;-70
2022/08/10 06:53:12;;;;;;;1.38;0.40;;;23.60;57.40;;;;;;4509392;31;20525;-70
2022/08/10 06:55:42;;;;;;;1.00;0.60;;;23.60;57.50;;;;;;4509138;31;20088;-69
2022/08/10 06:58:10;;;;;;;1.23;0.65;;;23.70;58.00;;;;;;4508512;31;20135;-69
2022/08/10 07:00:38;;;;;;;2.42;1.00;;;23.70;58.30;;;;;;4508539;31;20069;-69
2022/08/10 07:03:08;;;;;;;1.20;0.70;;;23.80;58.80;;;;;;4508942;31;20636;-70
2022/08/10 07:05:37;;;;;;;4.20;1.00;;;23.80;59.00;;;;;;4508979;31;20073;-70
2022/08/10 07:08:04;;;;;;;4.20;1.05;;;23.80;59.30;;;;;;4509065;31;20092;-70
2022/08/10 07:10:31;;;;;;;1.00;0.70;;;23.90;59.50;;;;;;4508626;31;20089;-70
2022/08/10 07:12:59;;;;;;;2.88;1.00;;;23.90;59.50;;;;;;4509001;31;20076;-70
2022/08/10 07:15:27;;;;;;;2.45;0.88;;;23.90;59.70;;;;;;4508877;31;20089;-69
2022/08/10 07:17:55;;;;;;;4.43;1.40;;;23.90;59.80;;;;;;4508549;31;20085;-68
2022/08/10 07:20:22;;;;;;;2.58;1.08;;;24.00;60.10;;;;;;4508419;31;20076;-71
2022/08/10 07:22:51;;;;;;;3.35;1.48;;;24.00;60.10;;;;;;4508494;31;20512;-70
2022/08/10 07:25:24;;;;;;;3.63;1.10;;;24.00;60.20;;;;;;4508529;31;20092;-70
2022/08/10 07:27:53;;;;;;;4.47;1.30;;;24.00;60.10;;;;;;4508548;31;20081;-70
2022/08/10 07:30:19;;;;;;;2.70;1.10;;;24.00;60.10;;;;;;4508370;31;20513;-70
2022/08/10 07:32:48;;;;;;;1.98;0.90;;;24.00;60.10;;;;;;4508391;31;20224;-69
2022/08/10 07:35:16;;;;;;;2.38;1.13;;;24.10;60.20;;;;;;4508422;31;20073;-71
2022/08/10 07:37:46;;;;;;;3.45;1.30;;;24.10;60.10;;;;;;4508341;31;20092;-69
2022/08/10 07:40:15;;;;;;;4.47;1.30;;;24.10;60.10;;;;;;4508561;31;20084;-70
2022/08/10 07:42:44;;;;;;;2.10;1.20;;;24.20;60.10;;;;;;4508262;31;20127;-72
2022/08/10 07:45:10;;;;;;;2.53;1.00;;;24.20;60.10;;;;;;4508478;31;20073;-70
2022/08/10 07:47:45;;;;;;;2.17;1.15;;;24.20;59.90;;;;;;4508084;31;20081;-70
2022/08/10 07:50:14;;;;;;;3.17;1.23;;;24.20;60.00;;;;;;4508663;31;20490;-70
2022/08/10 07:52:42;;;;;;;5.07;1.40;;;24.20;60.00;;;;;;4508358;31;20092;-70
2022/08/10 07:55:13;;;;;;;2.55;1.13;;;24.30;60.00;;;;;;4508137;31;20133;-70
2022/08/10 07:57:43;;;;;;;3.85;1.67;;;24.30;60.00;;;;;;4508067;31;20064;-72
2022/08/10 08:00:10;;;;;;;5.22;1.40;;;24.30;60.00;;;;;;4507652;31;20186;-74
2022/08/10 08:02:45;;;;;;;4.30;1.45;;;24.30;60.00;;;;;;4507714;31;20138;-76
2022/08/10 08:05:12;;;;;;;2.63;1.20;;;24.30;60.10;;;;;;4508258;31;20075;-77
2022/08/10 08:07:40;;;;;;;1.67;1.00;;;24.30;60.00;;;;;;4507786;31;20097;-71
2022/08/10 08:10:13;;;;;;;3.55;1.20;;;24.40;60.10;;;;;;4507734;31;20096;-71
2022/08/10 08:12:40;;;;;;;3.95;1.35;;;24.40;60.00;;;;;;4508262;31;20441;-70
2022/08/10 08:15:12;;;;;;;2.97;1.10;;;24.40;60.00;;;;;;4507788;31;20170;-71
2022/08/10 08:17:39;;;;;;;4.07;1.35;;;24.40;59.90;;;;;;4507949;31;20126;-71
2022/08/10 08:20:08;;;;;;;2.85;1.25;;;24.40;59.80;;;;;;4507851;31;20181;-79
2022/08/10 08:22:36;;;;;;;3.88;0.93;;;24.40;59.70;;;;;;4507603;31;20502;-72
2022/08/10 08:25:02;;;;;;;5.90;1.33;;;24.50;59.70;;;;;;4508046;31;20144;-70
2022/08/10 08:27:29;;;;;;;5.00;1.50;;;24.50;59.60;;;;;;4493523;31;20101;-70
2022/08/10 08:29:56;;;;;;;2.45;0.93;;;24.50;59.50;;;;;;4507696;31;20131;-70
2022/08/10 08:32:31;;;;;;;2.63;1.10;;;24.50;59.30;;;;;;4507724;31;20072;-70
2022/08/10 08:35:10;;;;;;;2.45;1.00;;;24.60;59.30;;;;;;4493515;31;20069;-70
2022/08/10 08:37:39;;;;;;;4.55;1.27;;;24.60;59.30;;;;;;4507728;31;20096;-70
2022/08/10 08:40:12;;;;;;;4.38;1.25;;;24.60;59.20;;;;;;4507598;31;20085;-70
2022/08/10 08:43:07;;;;;;;3.13;1.20;;;24.60;59.10;;;;;;4493509;31;20576;-70
2022/08/10 08:46:08;;;;;;;5.07;1.30;;;24.60;59.10;;;;;;4482672;31;20073;-70
2022/08/10 08:49:11;;;;;;;3.03;1.20;;;24.70;59.10;;;;;;4507415;31;20087;-70
2022/08/10 08:52:01;;;;;;;2.37;1.10;;;24.70;59.00;;;;;;4507639;31;20548;-70
2022/08/10 08:54:35;;;;;;;4.32;1.10;;;24.70;58.90;;;;;;4507733;31;20192;-70
2022/08/10 08:57:21;;;;;;;2.47;1.35;;;24.70;58.90;;;;;;4507897;31;20135;-70
2022/08/10 09:00:09;;;;;;;4.38;1.10;;;24.70;58.80;;;;;;4507908;31;20199;-70
2022/08/10 09:03:04;;;;;;;3.83;1.38;;;24.70;58.80;;;;;;4507794;31;20073;-71
2022/08/10 09:05:38;;;;;;;5.43;1.50;;;24.80;58.80;;;;;;4507322;31;20089;-70
2022/08/10 09:08:07;;;;;;;3.40;1.38;;;24.70;58.70;;;;;;4507299;31;20088;-70
2022/08/10 09:11:07;;;;;;;3.95;1.33;;;24.80;58.60;;;;;;4507428;31;20065;-66
2022/08/10 09:13:33;;;;;;;5.97;1.20;;;24.80;58.50;;;;;;4493171;31;20524;-68
2022/08/10 09:16:17;;;;;;;2.88;1.00;;;24.70;58.40;;;;;;4507378;31;20069;-69
2022/08/10 09:18:58;;;;;;;;;;;24.70;58.40;;;;;;4508143;31;20479;-69
2022/08/10 09:21:46;;;;;;;4.13;0.98;;;24.70;58.40;;;;;;4507833;31;19984;-70
2022/08/10 09:25:01;;;;;;;3.05;1.02;;;24.70;58.50;;;;;;4510230;31;20116;-69
2022/08/10 09:27:34;;;;;;;2.58;1.00;;;24.70;58.60;;;;;;4506553;31;20061;-69
2022/08/10 09:30:06;;;;;;;6.93;1.15;;;24.70;58.60;;;;;;4510521;31;20069;-69
2022/08/10 09:32:47;;;;;;;2.95;1.58;;;24.60;58.70;;;;;;4510367;31;20406;-69
2022/08/10 09:35:25;;;;;;;2.85;1.00;;;24.60;58.70;;;;;;4510624;31;20088;-69
2022/08/10 09:38:41;;;;;;;5.32;1.20;;;24.60;58.70;;;;;;4509966;31;20163;-68
2022/08/10 09:41:30;;;;;;;2.20;0.98;;;24.60;58.80;;;;;;4460820;32;20529;-69
2022/08/10 09:44:19;;;;;;;2.58;1.15;;;24.60;58.90;;;;;;4510379;31;20069;-69
2022/08/10 09:46:54;;;;;;;5.13;0.95;;;24.60;59.00;;;;;;4510210;31;20072;-68
2022/08/10 09:49:43;;;;;;;1.00;0.80;;;24.60;58.90;;;;;;4478704;31;20608;-69
2022/08/10 09:52:20;;;;;;;2.72;1.08;;;24.60;59.00;;;;;;4478309;31;20647;-70
2022/08/10 09:55:17;;;;;;;2.60;1.00;;;24.60;59.00;;;;;;4478576;32;20124;-69
2022/08/10 09:57:54;;;;;;;1.77;0.70;;;24.60;59.00;;;;;;4478244;31;20077;-70
2022/08/10 10:00:25;;;;;;;3.85;1.00;;;24.60;59.30;;;;;;4478754;32;20396;-69
2022/08/10 10:03:00;;;;;;;2.10;1.00;;;24.60;59.20;;;;;;4478321;32;20162;-70
2022/08/10 10:05:49;;;;;;;3.20;1.00;;;24.60;59.20;;;;;;4478219;31;20154;-69
2022/08/10 10:08:24;;;;;;;2.85;1.05;;;24.60;59.30;;;;;;4478474;31;20073;-69
2022/08/10 10:11:10;;;;;;;3.53;1.30;;;24.60;59.30;;;;;;4477518;31;20092;-68
2022/08/10 10:13:58;;;;;;;2.63;1.02;;;24.60;59.30;;;;;;4478320;31;20513;-67
2022/08/10 10:17:02;;;;;;;6.65;1.90;;;24.60;59.30;;;;;;4477622;31;20092;-69
2022/08/10 10:19:48;;;;;;;6.60;1.73;;;24.70;59.80;;;;;;4478112;32;20499;-66
2022/08/10 10:22:40;;;;;;;9.35;2.08;;;24.90;59.60;;;;;;4477956;31;20087;-66
2022/08/10 10:25:22;;;;;;;6.30;2.08;;;25.00;59.10;;;;;;4478105;31;20646;-67
2022/08/10 10:28:15;;;;;;;10.32;2.28;;;25.20;59.10;;;;;;4477837;31;20093;-68
2022/08/10 10:31:08;;;;;;;13.63;2.10;;;25.30;58.90;;;;;;4477986;32;20092;-66
2022/08/10 10:34:00;;;;;;;14.13;2.65;;;25.40;58.70;;;;;;4476935;32;20076;-68
2022/08/10 10:36:27;;;;;;;9.85;2.20;;;25.60;58.60;;;;;;4477878;32;20152;-68
2022/08/10 10:38:56;;;;;;;8.93;2.40;;;25.50;58.30;;;;;;4477179;31;20091;-67
2022/08/10 10:41:51;;;;;;;8.38;2.17;;;25.40;58.20;;;;;;4477695;31;20096;-68
2022/08/10 10:44:44;;;;;;;10.38;2.00;;;25.30;58.90;;;;;;4477563;31;20499;-68
2022/08/10 10:47:21;;;;;;;4.32;1.83;;;25.20;59.20;;;;;;4482044;31;20103;-67
2022/08/10 10:49:57;;;;;;;15.07;1.92;;;25.20;59.30;;;;;;4509135;31;20087;-67
2022/08/10 10:52:43;;;;;;;5.22;1.75;;;25.10;59.30;;;;;;4509303;31;20421;-67
2022/08/10 10:55:22;;;;;;;7.57;1.92;;;25.00;59.10;;;;;;4508951;31;20081;-67
2022/08/10 10:57:58;;;;;;;5.18;1.83;;;25.00;59.30;;;;;;4509396;31;20096;-67
2022/08/10 11:00:28;;;;;;;6.45;1.48;;;25.00;59.40;;;;;;4509287;31;20081;-68
2022/08/10 11:03:28;;;;;;;9.52;2.13;;;24.90;59.50;;;;;;4509006;31;20072;-70
2022/08/10 11:06:15;;;;;;;4.32;1.83;;;24.90;59.50;;;;;;4494561;31;20096;-68
2022/08/10 11:08:45;;;;;;;7.97;1.92;;;24.90;59.50;;;;;;4508936;31;20077;-70
2022/08/10 11:11:22;;;;;;;5.80;1.70;;;24.90;59.60;;;;;;4509000;31;20076;-67
2022/08/10 11:14:00;;;;;;;6.55;1.77;;;24.80;59.60;;;;;;4508970;31;20207;-69
2022/08/10 11:16:37;;;;;;;2.10;1.30;;;24.80;59.60;;;;;;4508920;31;20080;-68
2022/08/10 11:19:32;;;;;;;3.20;1.73;;;24.80;59.60;;;;;;4508757;31;20069;-68
2022/08/10 11:22:08;;;;;;;5.38;1.70;;;24.80;59.60;;;;;;4494079;31;20219;-67
2022/08/10 11:25:01;;;;;;;7.25;1.88;;;24.80;59.70;;;;;;4508404;31;20080;-68
2022/08/10 11:27:51;;;;;;;2.80;1.50;;;24.80;59.70;;;;;;4508475;31;20087;-68
2022/08/10 11:30:24;;;;;;;4.93;1.77;;;24.80;59.70;;;;;;4508540;31;20081;-67
2022/08/10 11:33:06;;;;;;;3.13;1.55;;;24.70;59.70;;;;;;4508499;31;20383;-67
2022/08/10 11:36:09;;;;;;;3.72;1.27;;;24.70;59.70;;;;;;4508435;31;20391;-67
2022/08/10 11:38:57;;;;;;;3.25;1.33;;;24.70;59.70;;;;;;4508301;31;20084;-68
2022/08/10 11:41:47;;;;;;;3.55;1.35;;;24.70;59.70;;;;;;4508391;31;20068;-67
2022/08/10 11:44:30;;;;;;;6.13;1.40;;;24.70;59.70;;;;;;4508592;31;20206;-67
2022/08/10 11:47:06;;;;;;;2.85;1.27;;;24.70;59.70;;;;;;4508309;31;20177;-67
2022/08/10 11:49:48;;;;;;;5.43;1.40;;;24.70;59.70;;;;;;4508225;31;20414;-67
2022/08/10 11:52:27;;;;;;;5.57;1.70;;;24.70;59.90;;;;;;4508444;31;20472;-67
2022/08/10 11:54:57;;;;;;;5.30;1.45;;;24.70;59.80;;;;;;4508081;31;20417;-67
2022/08/10 11:57:29;;;;;;;3.67;1.30;;;24.70;59.90;;;;;;4508389;31;20162;-67
2022/08/10 11:59:55;;;;;;;11.63;1.38;;;24.70;59.90;;;;;;4508257;31;20089;-68
2022/08/10 12:02:23;;;;;;;3.65;1.30;;;24.70;59.90;;;;;;4507970;31;20069;-67
2022/08/10 12:04:57;;;;;;;4.82;1.30;;;24.70;59.90;;;;;;4507862;31;20127;-68
2022/08/10 12:07:25;;;;;;;3.17;1.25;;;24.70;60.00;;;;;;4508069;31;20199;-67
2022/08/10 12:09:53;;;;;;;5.03;1.00;;;24.70;60.00;;;;;;4507535;31;20488;-67
2022/08/10 12:12:20;;;;;;;4.65;1.48;;;24.70;59.90;;;;;;4507857;31;20088;-67
2022/08/10 12:14:54;;;;;;;2.67;1.48;;;24.70;59.90;;;;;;4507850;31;20181;-67
2022/08/10 12:17:39;;;;;;;4.38;1.38;;;24.70;59.90;;;;;;4508106;31;20177;-67
2022/08/10 12:20:22;;;;;;;2.30;1.00;;;24.70;59.90;;;;;;4508211;31;20057;-68
2022/08/10 12:23:16;;;;;;;2.97;1.08;;;24.70;59.90;;;;;;4507885;31;20107;-67
2022/08/10 12:26:06;;;;;;;2.75;1.20;;;24.70;59.80;;;;;;4508006;31;20099;-68
2022/08/10 12:28:59;;;;;;;3.45;1.17;;;24.70;59.80;;;;;;4507830;31;20498;-67
2022/08/10 12:31:52;;;;;;;1.73;0.90;;;24.70;59.80;;;;;;4507512;31;20077;-67
2022/08/10 12:34:43;;;;;;;4.28;1.38;;;24.70;59.80;;;;;;4507796;31;20127;-67
2022/08/10 12:37:30;;;;;;;4.30;1.23;;;24.70;59.80;;;;;;4508024;31;20160;-67
2022/08/10 12:40:17;;;;;;;1.48;0.70;;;24.70;59.80;;;;;;4507616;31;20061;-68
2022/08/10 12:43:09;;;;;;;3.47;1.00;;;24.70;59.80;;;;;;4507681;31;20677;-68
2022/08/10 12:45:40;;;;;;;1.35;0.85;;;24.70;59.80;;;;;;4507405;31;20087;-70
2022/08/10 12:48:23;;;;;;;6.50;1.45;;;24.70;59.70;;;;;;4507193;31;20166;-67
2022/08/10 12:50:56;;;;;;;3.53;1.13;;;24.70;59.80;;;;;;4507631;31;20120;-67
2022/08/10 12:53:34;;;;;;;2.13;1.20;;;24.80;59.80;;;;;;4507732;31;20081;-67
2022/08/10 12:56:01;;;;;;;4.05;1.23;;;24.70;59.70;;;;;;4507663;31;20088;-67
2022/08/10 12:58:29;;;;;;;2.55;1.25;;;24.80;59.70;;;;;;4510019;31;20214;-67
2022/08/10 13:00:56;;;;;;;1.85;1.00;;;24.80;59.70;;;;;;4510701;31;20095;-67
2022/08/10 13:03:24;;;;;;;6.10;1.40;;;24.80;59.60;;;;;;4510656;31;20231;-67
2022/08/10 13:05:52;;;;;;;1.95;0.90;;;24.80;59.50;;;;;;4496536;31;20281;-67
2022/08/10 13:11:08;;;;;;;3.22;1.35;;;24.80;59.40;;;;;;4510818;31;20127;-67
2022/08/10 13:13:38;;;;;;;3.38;1.10;;;24.80;59.40;;;;;;4510461;31;20215;-68
2022/08/10 13:16:06;;;;;;;3.03;1.50;;;24.80;59.40;;;;;;4510615;31;20218;-67
2022/08/10 13:18:40;;;;;;;2.97;0.90;;;24.80;59.40;;;;;;4510525;31;20081;-68
2022/08/10 13:21:09;;;;;;;1.55;1.10;;;24.90;59.50;;;;;;4510831;31;20099;-67
2022/08/10 13:23:41;;;;;;;3.15;1.15;;;24.90;59.60;;;;;;4510131;31;20084;-68